Time;durP1;ratioP1;P1;durP2;ratioP2;P2;SDS_P1;SDS_P2;PMS_P1;PMS_P2;Temp;Humidity;BMP_temperature;BMP_pressure;BME280_temperature;BME280_humidity;BME280_pressure;Samples;Min_cycle;Max_cycle;Signal;HPM_P1;HPM_P2
2022/12/21 05:06:59;;;;;;;;;37.33;33.67;;;;;;;;6461169;39;8965;-58
2022/12/21 05:13:51;;;;;;;;;42.00;36.33;;;;;;;;6491025;31;8978;-60
2022/12/21 05:20:01;;;;;;;;;45.33;36.00;;;;;;;;6491038;31;8841;-60
2022/12/21 05:26:21;;;;;;;;;55.67;42.00;;;;;;;;6489219;46;8938;-59
2022/12/21 05:32:49;;;;;;;;;48.00;37.00;;;;;;;;6487981;39;8913;-59
2022/12/21 05:38:58;;;;;;;;;38.33;33.33;;;;;;;;6490703;31;8944;-60
2022/12/21 05:45:11;;;;;;;;;43.67;33.33;;;;;;;;6488381;39;9752;-60
2022/12/21 05:51:29;;;;;;;;;39.67;37.67;;;;;;;;6489645;46;8987;-61
2022/12/21 05:57:41;;;;;;;;;67.00;52.67;;;;;;;;6488844;46;8928;-60
2022/12/21 06:03:51;;;;;;;;;49.67;40.00;;;;;;;;6490016;31;8935;-60
2022/12/21 06:10:12;;;;;;;;;46.67;37.00;;;;;;;;6487882;31;8921;-61
2022/12/21 06:16:28;;;;;;;;;35.00;29.33;;;;;;;;6488115;31;8900;-60
2022/12/21 06:22:56;;;;;;;;;46.67;36.67;;;;;;;;6487197;39;8886;-60
2022/12/21 06:29:28;;;;;;;;;55.00;42.00;;;;;;;;6488462;39;8880;-60
2022/12/21 06:35:41;;;;;;;;;41.33;36.33;;;;;;;;6487717;39;8960;-61
2022/12/21 06:41:49;;;;;;;;;49.33;39.00;;;;;;;;6486345;47;8918;-60
2022/12/21 06:48:27;;;;;;;;;44.33;39.33;;;;;;;;6487504;31;9680;-59
2022/12/21 06:54:50;;;;;;;;;58.33;48.33;;;;;;;;6487587;31;8953;-60
2022/12/21 07:01:10;;;;;;;;;56.33;44.33;;;;;;;;6490283;39;9036;-60
2022/12/21 07:07:36;;;;;;;;;55.67;47.33;;;;;;;;6488397;31;9018;-60
2022/12/21 07:13:53;;;;;;;;;55.33;45.00;;;;;;;;6489252;39;9108;-61
2022/12/21 07:20:12;;;;;;;;;52.67;43.33;;;;;;;;6489616;39;8935;-60
2022/12/21 07:26:27;;;;;;;;;56.33;46.67;;;;;;;;6485807;39;9529;-60
2022/12/21 07:32:59;;;;;;;;;46.67;41.33;;;;;;;;6482987;39;8954;-61
2022/12/21 07:39:23;;;;;;;;;54.67;42.67;;;;;;;;6485042;39;8997;-61
2022/12/21 07:46:32;;;;;;;;;54.67;47.33;;;;;;;;6488050;46;8976;-60
2022/12/21 07:53:42;;;;;;;;;62.00;48.00;;;;;;;;6483845;31;9074;-62
2022/12/21 08:00:33;;;;;;;;;67.00;51.33;;;;;;;;6486361;39;9639;-61
2022/12/21 08:07:05;;;;;;;;;55.67;47.00;;;;;;;;6484822;39;9086;-57
2022/12/21 08:13:19;;;;;;;;;57.67;48.33;;;;;;;;6486161;39;8955;-60
2022/12/21 08:20:03;;;;;;;;;58.67;44.33;;;;;;;;6485452;31;9067;-59
2022/12/21 08:26:59;;;;;;;;;52.67;41.67;;;;;;;;6484386;31;9077;-62
2022/12/21 08:39:53;;;;;;;;;56.67;45.67;;;;;;;;6484893;31;9007;-60
2022/12/21 08:47:01;;;;;;;;;50.67;44.33;;;;;;;;6485654;39;9644;-60
2022/12/21 08:53:41;;;;;;;;;54.33;45.33;;;;;;;;6487757;39;8914;-59
2022/12/21 09:00:20;;;;;;;;;42.00;37.67;;;;;;;;6484899;31;8982;-61
2022/12/21 09:06:45;;;;;;;;;54.33;44.33;;;;;;;;6484448;46;9181;-61
2022/12/21 09:13:16;;;;;;;;;46.67;34.33;;;;;;;;6484265;39;9599;-60
2022/12/21 09:20:00;;;;;;;;;42.75;34.25;;;;;;;;6484048;31;9212;-60
2022/12/21 09:26:41;;;;;;;;;48.33;36.33;;;;;;;;6481963;39;8949;-61
2022/12/21 09:34:00;;;;;;;;;40.00;38.33;;;;;;;;6485889;31;9417;-60
2022/12/21 09:40:51;;;;;;;;;65.67;44.67;;;;;;;;6487267;31;8991;-60
2022/12/21 09:55:30;;;;;;;;;47.00;41.00;;;;;;;;6482456;31;9000;-61
2022/12/21 10:02:25;;;;;;;;;60.33;42.67;;;;;;;;6482256;39;9064;-62
2022/12/21 10:09:13;;;;;;;;;47.67;40.67;;;;;;;;6480732;39;8964;-60
2022/12/21 10:15:53;;;;;;;;;42.00;41.00;;;;;;;;6484003;39;8896;-61
2022/12/21 10:22:45;;;;;;;;;52.33;45.00;;;;;;;;6482466;47;8966;-62
2022/12/21 10:29:37;;;;;;;;;54.67;45.67;;;;;;;;6482324;47;8990;-61
2022/12/21 10:36:33;;;;;;;;;42.25;38.25;;;;;;;;6481754;39;8959;-60
2022/12/21 10:43:27;;;;;;;;;48.75;44.75;;;;;;;;6483943;31;9202;-61
2022/12/21 10:57:29;;;;;;;;;52.75;44.50;;;;;;;;6482326;46;9071;-61
2022/12/21 11:03:49;;;;;;;;;43.75;41.75;;;;;;;;6484264;31;9056;-61
2022/12/21 11:10:30;;;;;;;;;52.67;46.00;;;;;;;;6483554;39;9032;-61
2022/12/21 11:17:11;;;;;;;;;48.75;44.00;;;;;;;;6484630;39;9004;-61
2022/12/21 11:24:22;;;;;;;;;50.25;45.00;;;;;;;;6484180;46;8936;-61
2022/12/21 11:31:12;;;;;;;;;63.25;49.25;;;;;;;;6482878;46;8917;-60
2022/12/21 11:44:46;;;;;;;;;36.25;31.50;;;;;;;;6480055;46;8984;-60
2022/12/21 11:51:15;;;;;;;;;48.00;44.50;;;;;;;;6483725;46;9115;-61
2022/12/21 11:58:01;;;;;;;;;56.33;48.00;;;;;;;;6483535;46;8976;-61
2022/12/21 12:11:47;;;;;;;;;60.00;45.67;;;;;;;;6481110;39;9066;-61
2022/12/21 12:18:18;;;;;;;;;60.33;48.67;;;;;;;;6482529;31;9085;-60
2022/12/21 12:25:20;;;;;;;;;76.33;57.33;;;;;;;;6482519;39;8956;-60
2022/12/21 12:32:47;;;;;;;;;58.33;45.00;;;;;;;;6482740;31;9045;-61
2022/12/21 12:39:35;;;;;;;;;61.00;48.33;;;;;;;;6482690;39;9527;-60
2022/12/21 12:46:39;;;;;;;;;94.67;69.67;;;;;;;;6483205;31;9044;-60
2022/12/21 12:54:09;;;;;;;;;56.25;44.75;;;;;;;;6477064;46;9006;-60
2022/12/21 13:00:27;;;;;;;;;50.67;43.67;;;;;;;;6482375;31;9028;-62
2022/12/21 13:07:30;;;;;;;;;67.67;51.67;;;;;;;;6481434;31;8979;-61
2022/12/21 13:14:40;;;;;;;;;70.67;55.67;;;;;;;;6484273;31;8967;-59
2022/12/21 13:21:06;;;;;;;;;71.33;52.00;;;;;;;;6483112;46;9058;-62
2022/12/21 13:34:06;;;;;;;;;65.00;54.00;;;;;;;;6483850;39;8942;-60
2022/12/21 13:40:24;;;;;;;;;77.33;59.00;;;;;;;;6483746;46;8958;-61
2022/12/21 13:46:39;;;;;;;;;60.33;50.33;;;;;;;;6482113;39;9645;-59
2022/12/21 13:53:28;;;;;;;;;71.00;53.33;;;;;;;;6483716;39;9574;-59
2022/12/21 14:00:37;;;;;;;;;50.33;39.67;;;;;;;;6484394;39;8990;-61
2022/12/21 14:07:32;;;;;;;;;58.50;48.50;;;;;;;;6484663;39;9020;-60
2022/12/21 14:14:28;;;;;;;;;65.67;51.00;;;;;;;;6488353;39;8905;-59
2022/12/21 14:21:50;;;;;;;;;68.33;52.00;;;;;;;;6486072;31;9068;-60
2022/12/21 14:28:47;;;;;;;;;61.33;51.67;;;;;;;;6486327;31;8933;-60
2022/12/21 14:35:28;;;;;;;;;66.67;51.67;;;;;;;;6486578;31;9036;-60
2022/12/21 14:42:35;;;;;;;;;52.33;43.00;;;;;;;;6490028;39;9030;-59
2022/12/21 14:49:24;;;;;;;;;54.00;46.00;;;;;;;;6490358;39;9476;-58
2022/12/21 14:56:03;;;;;;;;;60.33;49.00;;;;;;;;6487852;39;8946;-60
2022/12/21 15:02:38;;;;;;;;;58.00;48.00;;;;;;;;6488888;47;9087;-62
2022/12/21 15:08:52;;;;;;;;;60.67;48.67;;;;;;;;6488504;39;9557;-60
2022/12/21 15:15:22;;;;;;;;;55.67;48.67;;;;;;;;6490506;31;9591;-59
2022/12/21 15:21:39;;;;;;;;;67.67;49.67;;;;;;;;6489926;39;9113;-60
2022/12/21 15:28:03;;;;;;;;;49.33;41.33;;;;;;;;6491136;46;8830;-60
2022/12/21 15:34:19;;;;;;;;;54.67;49.00;;;;;;;;6490423;46;8889;-61
2022/12/21 15:40:25;;;;;;;;;69.33;52.00;;;;;;;;6489267;39;9006;-59
2022/12/21 15:46:51;;;;;;;;;50.67;42.33;;;;;;;;6491216;31;9038;-61
2022/12/21 15:53:04;;;;;;;;;63.33;50.00;;;;;;;;6489034;46;9012;-62
2022/12/21 15:59:15;;;;;;;;;70.00;49.00;;;;;;;;6489772;46;8949;-63
2022/12/21 16:05:31;;;;;;;;;59.33;47.33;;;;;;;;6489487;39;8885;-59
2022/12/21 16:11:42;;;;;;;;;58.33;48.00;;;;;;;;6490428;39;9026;-63
2022/12/21 16:18:23;;;;;;;;;62.67;44.67;;;;;;;;6489547;31;8936;-62
2022/12/21 16:24:33;;;;;;;;;67.00;53.33;;;;;;;;6490990;31;8987;-61
2022/12/21 16:31:33;;;;;;;;;61.33;48.00;;;;;;;;6489560;39;8915;-62
2022/12/21 16:37:40;;;;;;;;;72.33;54.00;;;;;;;;6490133;39;9804;-61
2022/12/21 16:43:47;;;;;;;;;69.67;46.00;;;;;;;;6489615;39;8913;-60
2022/12/21 16:50:00;;;;;;;;;65.67;53.33;;;;;;;;6491852;31;9289;-61
2022/12/21 16:56:34;;;;;;;;;60.00;51.67;;;;;;;;6489159;39;8974;-62
2022/12/21 17:03:21;;;;;;;;;79.67;59.33;;;;;;;;6489438;46;8938;-62
2022/12/21 17:10:25;;;;;;;;;43.33;39.67;;;;;;;;6489417;39;8918;-61
2022/12/21 17:16:37;;;;;;;;;77.00;58.00;;;;;;;;6489559;39;8938;-61
2022/12/21 17:23:10;;;;;;;;;64.00;52.00;;;;;;;;6489299;46;8941;-62
2022/12/21 17:29:26;;;;;;;;;65.00;49.67;;;;;;;;6488626;39;8858;-62
2022/12/21 17:35:33;;;;;;;;;72.33;54.33;;;;;;;;6488109;39;8990;-62
2022/12/21 17:41:49;;;;;;;;;70.67;52.00;;;;;;;;6489323;39;8885;-62
2022/12/21 17:47:57;;;;;;;;;57.67;48.00;;;;;;;;6490030;31;8901;-63
2022/12/21 17:54:16;;;;;;;;;54.33;48.00;;;;;;;;6488257;39;9005;-61
2022/12/21 18:00:29;;;;;;;;;67.00;51.33;;;;;;;;6489618;46;8924;-61
2022/12/21 18:06:52;;;;;;;;;46.67;44.33;;;;;;;;6488721;39;8902;-63
2022/12/21 18:13:06;;;;;;;;;68.33;54.00;;;;;;;;6489127;39;9052;-62
2022/12/21 18:19:15;;;;;;;;;67.00;54.00;;;;;;;;6488147;39;8907;-62
